RJOP(METAR)
10/21 04:00
METAR RJOP 201900Z 27006KT 9999 FEW030 15/11 Q1023 RMK 1CU030 A3021=
戻る
トップページへ戻る
IMOC Co,.Ltd.